Time;durP1;ratioP1;P1;durP2;ratioP2;P2;SDS_P1;SDS_P2;PMS_P1;PMS_P2;Temp;Humidity;BMP_temperature;BMP_pressure;BME280_temperature;BME280_humidity;BME280_pressure;Samples;Min_cycle;Max_cycle;Signal;HPM_P1;HPM_P2
2021/12/01 00:00:53;;;;;;;0.40;0.40;;;;;;;-0.02;71.69;94055.66;2614716;54;20165;-72
2021/12/01 00:03:23;;;;;;;1.67;1.37;;;;;;;-1.75;68.64;94084.72;2613634;47;20168;-70
2021/12/01 00:05:52;;;;;;;2.03;1.93;;;;;;;-2.49;70.65;94097.59;2614140;54;20165;-71
2021/12/01 00:08:23;;;;;;;2.00;1.90;;;;;;;-3.42;73.93;94057.63;2613947;54;20160;-71
2021/12/01 00:10:53;;;;;;;1.40;1.30;;;;;;;-3.49;75.41;94058.47;2613933;46;20183;-68
2021/12/01 00:13:25;;;;;;;1.30;1.20;;;;;;;-3.95;75.67;94028.78;2613868;54;20177;-70
2021/12/01 00:15:56;;;;;;;1.37;1.37;;;;;;;-3.39;76.30;94062.72;2615380;47;20672;-69
2021/12/01 00:18:26;;;;;;;0.60;0.60;;;;;;;-3.09;74.60;94033.00;2613737;54;20164;-69
2021/12/01 00:20:55;;;;;;;1.17;1.17;;;;;;;-1.29;72.63;94064.19;2613402;54;20185;-69
2021/12/01 00:23:27;;;;;;;2.10;2.00;;;;;;;-2.92;71.34;94064.06;2613482;51;20192;-70
2021/12/01 00:25:56;;;;;;;0.80;0.80;;;;;;;-2.62;79.05;94081.44;2613112;54;20187;-69
2021/12/01 00:28:25;;;;;;;1.37;1.37;;;;;;;-3.03;71.53;94061.16;2613683;54;21867;-70
2021/12/01 00:30:55;;;;;;;1.83;1.23;;;;;;;-3.40;71.97;94027.28;2613972;47;20875;-70
2021/12/01 00:33:24;;;;;;;0.50;0.50;;;;;;;-2.40;77.25;94073.94;2613585;54;20167;-70
2021/12/01 00:35:55;;;;;;;0.83;0.83;;;;;;;-2.47;69.94;94085.94;2613378;47;20203;-70
2021/12/01 00:38:29;;;;;;;2.47;2.33;;;;;;;-3.61;72.34;94044.47;2613410;47;20169;-69
2021/12/01 00:41:02;;;;;;;0.50;0.50;;;;;;;-2.40;80.17;94069.13;2613640;47;20156;-70
2021/12/01 00:43:32;;;;;;;1.40;1.40;;;;;;;-2.58;70.23;94026.25;2613488;47;20404;-70
2021/12/01 00:46:20;;;;;;;1.80;1.67;;;;;;;-1.82;67.33;94080.81;2612702;47;20175;-72
2021/12/01 00:48:49;;;;;;;1.55;1.48;;;;;;;-1.85;67.43;94057.00;2613378;47;20506;-70
2021/12/01 00:51:18;;;;;;;0.73;0.73;;;;;;;-1.85;84.25;94064.59;2613816;54;20164;-70
2021/12/01 00:53:50;;;;;;;0.60;0.60;;;;;;;-0.49;70.44;94070.75;2607761;54;20198;-70
2021/12/01 00:56:19;;;;;;;2.07;1.97;;;;;;;-3.34;73.38;94030.53;2611137;47;20177;-70
2021/12/01 00:58:51;;;;;;;1.10;1.10;;;;;;;-4.09;74.45;94003.56;2612716;50;20187;-70
2021/12/01 01:01:27;;;;;;;1.30;1.30;;;;;;;-3.39;75.45;94050.91;2612255;47;20419;-71
2021/12/01 01:03:56;;;;;;;0.67;0.67;;;;;;;-1.46;81.88;94040.16;2613921;47;20207;-72
2021/12/01 01:06:25;;;;;;;1.37;1.33;;;;;;;-2.20;73.45;94047.63;2613414;47;20161;-71
2021/12/01 01:08:57;;;;;;;1.93;1.77;;;;;;;-2.97;70.23;94059.53;2613600;47;20173;-72
2021/12/01 01:16:58;;;;;;;1.00;1.00;;;;;;;0.33;90.91;94068.88;2613909;39;20213;-70
2021/12/01 01:19:28;;;;;;;1.23;1.13;;;;;;;-0.53;69.04;94068.44;2614670;47;20158;-71
2021/12/01 01:22:03;;;;;;;0.90;0.90;;;;;;;-3.56;70.21;93943.81;2614850;54;20254;-72
2021/12/01 01:24:35;;;;;;;0.70;0.70;;;;;;;-1.52;82.25;94037.72;2614602;54;20155;-71
2021/12/01 01:27:05;;;;;;;0.40;0.40;;;;;;;0.53;80.56;94102.81;2614977;47;20169;-72
2021/12/01 01:29:36;;;;;;;0.47;0.47;;;;;;;0.81;63.75;94087.06;2614804;47;20707;-72
2021/12/01 01:32:06;;;;;;;0.93;0.87;;;;;;;-0.96;64.49;94037.19;2615417;47;20187;-72
2021/12/01 01:34:35;;;;;;;0.57;0.57;;;;;;;-1.01;83.39;94102.16;2615425;47;20170;-70
2021/12/01 01:37:19;;;;;;;0.83;0.83;;;;;;;1.71;89.70;94111.09;2614609;54;20153;-71
2021/12/01 01:39:57;;;;;;;0.73;0.73;;;;;;;1.80;68.09;94109.47;2612756;54;20161;-70
2021/12/01 01:42:26;;;;;;;2.53;1.50;;;;;;;1.91;58.37;94088.44;2614349;47;20284;-71
2021/12/01 01:44:55;;;;;;;0.90;0.90;;;;;;;-0.31;64.20;94082.31;2614039;47;20723;-70
2021/12/01 01:47:24;;;;;;;1.07;1.07;;;;;;;-2.10;68.39;94078.84;2614105;47;20958;-71
2021/12/01 01:49:56;;;;;;;2.13;2.03;;;;;;;-3.49;72.46;94066.78;2614584;47;20195;-69
2021/12/01 01:52:26;;;;;;;1.93;1.03;;;;;;;-2.95;72.55;94031.25;2614568;47;20168;-70
2021/12/01 01:54:58;;;;;;;0.87;0.87;;;;;;;-3.62;73.62;93999.44;2613973;54;20259;-70
2021/12/01 01:57:26;;;;;;;1.53;1.33;;;;;;;-1.84;82.65;94054.94;2614281;47;20161;-69
2021/12/01 01:59:55;;;;;;;2.00;1.90;;;;;;;-2.89;70.64;94018.59;2614766;54;20152;-72
2021/12/01 02:02:24;;;;;;;0.80;0.80;;;;;;;-2.52;81.17;94059.97;2614726;54;20987;-70
2021/12/01 02:04:56;;;;;;;0.50;0.50;;;;;;;-1.25;71.34;93992.22;2614500;54;20161;-70
2021/12/01 02:07:25;;;;;;;0.70;0.70;;;;;;;-2.48;71.24;94031.78;2614145;54;20161;-70
2021/12/01 02:09:53;;;;;;;0.80;0.80;;;;;;;-1.65;83.15;94060.44;2613479;54;20157;-69
2021/12/01 02:12:25;;;;;;;0.50;0.50;;;;;;;-1.00;73.62;94022.31;2613690;54;20164;-70
2021/12/01 02:14:54;;;;;;;0.67;0.67;;;;;;;0.41;81.70;94054.72;2614547;47;20207;-72
2021/12/01 02:17:23;;;;;;;1.17;1.17;;;;;;;0.19;75.97;94076.38;2619893;47;20161;-74
2021/12/01 02:19:57;;;;;;;0.93;0.93;;;;;;;-1.35;66.38;94035.97;2616820;54;20168;-72
2021/12/01 02:22:31;;;;;;;1.73;1.73;;;;;;;-0.78;79.60;94057.81;2617914;54;20160;-72
2021/12/01 02:24:59;;;;;;;1.70;1.13;;;;;;;0.24;75.34;93995.25;2617491;46;20197;-72
2021/12/01 02:27:29;;;;;;;0.60;0.60;;;;;;;-1.02;67.82;93997.16;2617641;47;20159;-72
2021/12/01 02:29:57;;;;;;;0.90;0.90;;;;;;;0.52;70.93;94043.56;2617809;54;20711;-72
2021/12/01 02:32:26;;;;;;;2.47;2.28;;;;;;;-1.88;67.40;94029.69;2617828;54;20528;-71
2021/12/01 02:34:55;;;;;;;0.63;0.63;;;;;;;-2.67;76.93;94000.03;2617971;39;20559;-72
2021/12/01 02:37:24;;;;;;;0.50;0.50;;;;;;;-1.62;80.36;94020.34;2617847;54;20185;-72
2021/12/01 02:39:56;;;;;;;1.07;1.07;;;;;;;0.38;79.79;93983.50;2617806;54;20167;-71
2021/12/01 02:42:25;;;;;;;0.60;0.60;;;;;;;-2.31;71.01;93982.41;2616967;47;20169;-71
2021/12/01 02:44:54;;;;;;;0.53;0.53;;;;;;;-0.26;80.25;94031.13;2617821;47;20187;-71
2021/12/01 02:47:26;;;;;;;0.67;0.67;;;;;;;-0.16;67.38;94018.59;2618239;39;20559;-71
2021/12/01 02:49:56;;;;;;;2.60;2.23;;;;;;;-3.09;69.32;93936.06;2619136;54;20158;-72
2021/12/01 02:52:25;;;;;;;0.67;0.67;;;;;;;-1.78;82.61;94032.44;2617846;54;20160;-71
2021/12/01 02:54:58;;;;;;;1.57;1.47;;;;;;;-1.97;68.08;94024.91;2617946;47;20186;-71
2021/12/01 02:57:27;;;;;;;0.67;0.67;;;;;;;-1.83;68.12;94023.09;2617641;47;20188;-72
2021/12/01 02:59:56;;;;;;;1.57;1.47;;;;;;;-1.84;68.11;94036.25;2617883;47;20172;-73
2021/12/01 03:02:25;;;;;;;2.13;1.70;;;;;;;-0.89;71.65;94072.38;2617861;39;20578;-73
2021/12/01 03:04:54;;;;;;;2.30;2.20;;;;;;;-3.09;72.30;93997.72;2617863;54;20149;-72
2021/12/01 03:07:23;;;;;;;0.50;0.50;;;;;;;-1.03;76.41;94054.06;2617559;47;20168;-71
2021/12/01 03:09:52;;;;;;;0.50;0.50;;;;;;;-0.37;74.43;94057.59;2617617;47;20160;-73
2021/12/01 03:12:23;;;;;;;0.93;0.93;;;;;;;-0.14;64.78;94043.75;2617028;46;20172;-71
2021/12/01 03:14:54;;;;;;;2.50;1.83;;;;;;;-2.07;67.64;93994.44;2617647;54;20164;-72
2021/12/01 03:17:23;;;;;;;1.50;1.40;;;;;;;-2.75;69.56;93982.84;2615577;47;20151;-71
2021/12/01 03:19:52;;;;;;;0.80;0.80;;;;;;;-2.88;72.41;94033.91;2617741;39;20577;-72
2021/12/01 03:22:21;;;;;;;1.67;1.57;;;;;;;-3.09;71.95;94019.88;2617659;54;20189;-72
2021/12/01 03:24:50;;;;;;;2.20;2.10;;;;;;;-3.48;75.86;93976.88;2617888;39;20621;-72
2021/12/01 03:27:19;;;;;;;0.60;0.60;;;;;;;-2.02;75.43;94056.47;2617545;48;20153;-73
2021/12/01 03:29:52;;;;;;;0.50;0.50;;;;;;;-0.84;78.60;94065.78;2617194;47;20181;-73
2021/12/01 03:32:21;;;;;;;0.77;0.77;;;;;;;-0.70;74.04;94054.09;2617434;46;20149;-72
2021/12/01 03:34:50;;;;;;;0.70;0.70;;;;;;;-0.51;77.23;94085.25;2617753;39;20602;-71
2021/12/01 03:37:19;;;;;;;1.20;1.20;;;;;;;-2.28;69.73;94050.56;2617427;54;20160;-71
2021/12/01 03:39:48;;;;;;;1.97;1.77;;;;;;;-2.46;72.25;94021.56;2617128;47;20165;-71
2021/12/01 03:42:17;;;;;;;0.50;0.50;;;;;;;-0.61;75.15;94073.47;2617373;54;20147;-72
2021/12/01 03:44:45;;;;;;;0.50;0.50;;;;;;;-0.06;69.89;94049.81;2617692;47;20352;-72
2021/12/01 03:47:17;;;;;;;1.40;1.40;;;;;;;0.30;79.19;94064.50;2617760;54;20181;-71
2021/12/01 03:49:46;;;;;;;1.30;1.30;;;;;;;-0.51;65.36;94051.88;2617335;47;20156;-71
2021/12/01 03:52:16;;;;;;;0.40;0.40;;;;;;;-1.42;74.65;94048.03;2617536;46;20197;-71
2021/12/01 03:54:45;;;;;;;0.50;0.50;;;;;;;-1.10;82.25;94050.91;2617448;47;20209;-71
2021/12/01 03:57:15;;;;;;;1.53;1.20;;;;;;;-0.67;69.18;94042.50;2618136;39;20606;-72
2021/12/01 03:59:44;;;;;;;0.60;0.60;;;;;;;-0.83;69.00;94033.88;2617731;54;20165;-71
2021/12/01 04:02:13;;;;;;;0.70;0.70;;;;;;;-1.08;70.88;94003.03;2617174;54;20156;-71
2021/12/01 04:04:45;;;;;;;0.80;0.80;;;;;;;-1.25;69.03;94042.22;2617506;47;20170;-72
2021/12/01 04:07:14;;;;;;;1.03;1.03;;;;;;;-0.96;67.85;94042.75;2617505;54;20166;-72
2021/12/01 04:09:45;;;;;;;1.07;1.07;;;;;;;-1.70;69.89;94011.50;2617470;47;20176;-71
2021/12/01 04:12:14;;;;;;;0.57;0.57;;;;;;;-0.98;84.82;94034.28;2617031;47;20162;-71
2021/12/01 04:14:43;;;;;;;0.77;0.77;;;;;;;-0.93;69.21;94005.41;2617279;47;20179;-70
2021/12/01 04:17:12;;;;;;;1.40;1.30;;;;;;;-1.32;70.98;94001.47;2617042;54;20148;-71
2021/12/01 04:19:45;;;;;;;0.63;0.63;;;;;;;-1.08;73.90;94036.38;2617228;47;20168;-70
2021/12/01 04:22:14;;;;;;;0.83;0.83;;;;;;;1.00;65.79;93983.59;2617100;54;20171;-71
2021/12/01 04:24:43;;;;;;;0.60;0.60;;;;;;;1.40;62.72;94007.47;2617226;47;20206;-72
2021/12/01 04:27:12;;;;;;;0.40;0.40;;;;;;;1.36;65.82;94018.41;2617041;47;20675;-71
2021/12/01 04:29:42;;;;;;;0.70;0.70;;;;;;;2.02;68.06;93984.31;2617214;47;20259;-72
2021/12/01 04:32:11;;;;;;;0.40;0.40;;;;;;;2.50;63.63;93977.72;2617348;54;20171;-71
2021/12/01 04:34:40;;;;;;;0.40;0.40;;;;;;;2.79;60.63;93972.22;2616783;47;20164;-72
2021/12/01 04:37:12;;;;;;;0.50;0.50;;;;;;;2.86;61.19;93984.44;2617186;54;20668;-72
2021/12/01 04:39:42;;;;;;;0.50;0.50;;;;;;;2.89;62.36;93974.78;2616971;47;20280;-72
2021/12/01 04:42:11;;;;;;;0.50;0.50;;;;;;;2.86;61.31;94001.22;2617556;47;20177;-72
2021/12/01 04:44:40;;;;;;;0.33;0.33;;;;;;;2.75;63.93;93958.03;2617141;54;20211;-72
2021/12/01 04:47:13;;;;;;;0.40;0.40;;;;;;;2.89;58.58;93999.22;2615048;47;20171;-72
2021/12/01 04:49:45;;;;;;;0.67;0.67;;;;;;;2.78;63.80;93998.72;2616408;47;20161;-73
2021/12/01 04:52:18;;;;;;;0.57;0.57;;;;;;;3.14;61.00;94016.59;2615845;47;20187;-72
2021/12/01 04:54:47;;;;;;;0.60;0.60;;;;;;;2.95;61.59;93933.13;2616574;54;21153;-72
